DAL1686 KMCO-KJFK
Flight info
| Callsign | DAL1686 |
|---|---|
| Flight time | N/A |
| Altitude | 33000 |
| Route | FATHE4 VIYAP Q87 JROSS JOHAR Q109 DFENC SAWED Q108 SIE CAMRN5 |
| Aircraft | A21N/M-SDE2E3FGHIRWXY/LB1 |
Departure
| Time | 2026-04-26 23:48 |
|---|---|
| Airport | Orlando International Airport (KMCO) |
Arrival
| Time | N/A |
|---|---|
| Airport | John F. Kennedy International Airport (KJFK) |
| Time | Latitude | Longitude | Altitude | Speed | Heading |
|---|---|---|---|---|---|
| 2026-04-26 23:11 | 28.42904 | -81.30012 | 108 ft | 0 kts | 219° |
| 2026-04-26 23:39 | 28.42906 | -81.30010 | 108 ft | 3 kts | 218° |
| 2026-04-26 23:40 | 28.42929 | -81.29995 | 107 ft | 4 kts | 195° |
| 2026-04-26 23:40 | 28.42954 | -81.29993 | 107 ft | 4 kts | 164° |
| 2026-04-26 23:40 | 28.42975 | -81.30007 | 107 ft | 4 kts | 122° |
| 2026-04-26 23:40 | 28.42979 | -81.30014 | 108 ft | 1 kts | 112° |
| 2026-04-26 23:44 | 28.42973 | -81.29997 | 107 ft | 5 kts | 112° |
| 2026-04-26 23:44 | 28.42953 | -81.29951 | 107 ft | 8 kts | 120° |
| 2026-04-26 23:44 | 28.42922 | -81.29895 | 108 ft | 9 kts | 118° |
| 2026-04-26 23:45 | 28.42918 | -81.29821 | 108 ft | 11 kts | 59° |
| 2026-04-26 23:45 | 28.42992 | -81.29798 | 109 ft | 12 kts | 356° |
| 2026-04-26 23:45 | 28.43083 | -81.29801 | 109 ft | 14 kts | 360° |
| 2026-04-26 23:45 | 28.43184 | -81.29801 | 109 ft | 15 kts | 0° |
| 2026-04-26 23:46 | 28.43293 | -81.29802 | 109 ft | 16 kts | 359° |
| 2026-04-26 23:46 | 28.43351 | -81.29803 | 109 ft | 6 kts | 359° |
| 2026-04-26 23:46 | 28.43401 | -81.29804 | 109 ft | 9 kts | 359° |
| 2026-04-26 23:46 | 28.43473 | -81.29803 | 109 ft | 12 kts | 4° |
| 2026-04-26 23:47 | 28.43552 | -81.29753 | 109 ft | 16 kts | 71° |
| 2026-04-26 23:47 | 28.43553 | -81.29639 | 107 ft | 13 kts | 103° |
| 2026-04-26 23:47 | 28.43470 | -81.29588 | 111 ft | 17 kts | 172° |
| 2026-04-26 23:47 | 28.43426 | -81.29585 | 112 ft | 21 kts | 181° |
| 2026-04-26 23:48 | 28.43085 | -81.29582 | 111 ft | 89 kts | 181° |
| 2026-04-26 23:48 | 28.42144 | -81.29570 | 107 ft | 181 kts | 179° |
| 2026-04-26 23:48 | 28.40758 | -81.29571 | 829 ft | 209 kts | 183° |
| 2026-04-26 23:48 | 28.39286 | -81.29570 | 1882 ft | 217 kts | 180° |
| 2026-04-26 23:49 | 28.37806 | -81.29036 | 2370 ft | 234 kts | 152° |
| 2026-04-26 23:49 | 28.36407 | -81.28007 | 2880 ft | 245 kts | 147° |
| 2026-04-26 23:49 | 28.35040 | -81.26787 | 3428 ft | 256 kts | 128° |
| 2026-04-26 23:49 | 28.34247 | -81.24981 | 4062 ft | 260 kts | 99° |
| 2026-04-26 23:50 | 28.34177 | -81.22939 | 4798 ft | 261 kts | 84° |
| 2026-04-26 23:50 | 28.34325 | -81.20871 | 5540 ft | 263 kts | 83° |
| 2026-04-26 23:50 | 28.34504 | -81.18797 | 6273 ft | 265 kts | 83° |
| 2026-04-26 23:50 | 28.34700 | -81.16706 | 6957 ft | 267 kts | 80° |
| 2026-04-26 23:51 | 28.35269 | -81.14717 | 7619 ft | 267 kts | 57° |
| 2026-04-26 23:51 | 28.36502 | -81.13166 | 8272 ft | 266 kts | 32° |
| 2026-04-26 23:51 | 28.38160 | -81.12350 | 8919 ft | 264 kts | 7° |
| 2026-04-26 23:51 | 28.39979 | -81.12377 | 9601 ft | 264 kts | 345° |
| 2026-04-26 23:52 | 28.41736 | -81.13002 | 10281 ft | 265 kts | 338° |
| 2026-04-26 23:52 | 28.43472 | -81.13716 | 10933 ft | 267 kts | 339° |
| 2026-04-26 23:52 | 28.45231 | -81.14421 | 11582 ft | 270 kts | 339° |
| 2026-04-26 23:52 | 28.47010 | -81.15113 | 12226 ft | 272 kts | 339° |
| 2026-04-26 23:53 | 28.48824 | -81.15802 | 12862 ft | 275 kts | 340° |
| 2026-04-26 23:53 | 28.50647 | -81.16487 | 13503 ft | 277 kts | 340° |
| 2026-04-26 23:53 | 28.52531 | -81.17187 | 13865 ft | 292 kts | 340° |
| 2026-04-26 23:53 | 28.54519 | -81.17927 | 14082 ft | 309 kts | 340° |
| 2026-04-26 23:54 | 28.56623 | -81.18710 | 14297 ft | 327 kts | 340° |
| 2026-04-26 23:54 | 28.58842 | -81.19532 | 14488 ft | 343 kts | 340° |
| 2026-04-26 23:54 | 28.61167 | -81.20394 | 14703 ft | 359 kts | 340° |
| 2026-04-26 23:54 | 28.63595 | -81.21293 | 14901 ft | 375 kts | 340° |
| 2026-04-26 23:55 | 28.66118 | -81.22227 | 15096 ft | 388 kts | 340° |
| 2026-04-26 23:55 | 28.68733 | -81.23193 | 15290 ft | 402 kts | 341° |
| 2026-04-26 23:55 | 28.71430 | -81.24191 | 15527 ft | 412 kts | 341° |
| 2026-04-26 23:55 | 28.74170 | -81.25207 | 16000 ft | 416 kts | 340° |
| 2026-04-26 23:56 | 28.76898 | -81.26217 | 16508 ft | 419 kts | 340° |
| 2026-04-26 23:56 | 28.79711 | -81.27256 | 17022 ft | 422 kts | 340° |
| 2026-04-26 23:56 | 28.82481 | -81.28271 | 17523 ft | 425 kts | 341° |
| 2026-04-26 23:56 | 28.85386 | -81.28979 | 18024 ft | 429 kts | 351° |
| 2026-04-26 23:57 | 28.88374 | -81.29270 | 18463 ft | 433 kts | 354° |
| 2026-04-26 23:57 | 28.91389 | -81.29504 | 18865 ft | 436 kts | 354° |
| 2026-04-26 23:57 | 28.94429 | -81.29749 | 19263 ft | 439 kts | 353° |
| 2026-04-26 23:57 | 28.97488 | -81.30005 | 19663 ft | 443 kts | 353° |
| 2026-04-26 23:58 | 29.00570 | -81.30304 | 20067 ft | 445 kts | 352° |
| 2026-04-26 23:58 | 29.03664 | -81.30645 | 20460 ft | 448 kts | 352° |
| 2026-04-26 23:58 | 29.06784 | -81.30993 | 20855 ft | 452 kts | 352° |